ENZV/SVG METAR and TAF weather

Enter ICAO airport designator
Station Type Date Time Source
ENZV METAR 2019/02/23 16:50 UTC NOAA

ENZV 231650Z 16016KT 8000 BKN010 08/06 Q1032 TEMPO BKN009


Station Type Date Time Source
ENZV Decoded METAR 2019/02/23 16:50 UTC NOAA

Stavanger / Sola, Norway (ENZV) 58-53N 005-38E 9M
Feb 23, 2019 - 11:50 AM EST / 2019.02.23 1650 UTC
Wind: from the SSE (160 degrees) at 18 MPH (16 KT):0
Visibility: 4 mile(s):0
Sky conditions: mostly cloudy
Temperature: 46 F (8 C)
Dew Point: 42 F (6 C)
Relative Humidity: 87%
Pressure (altimeter): 30.47 in. Hg (1032 hPa)
ob: ENZV 231650Z 16016KT 8000 BKN010 08/06 Q1032 TEMPO BKN009
cycle: 17

Station Type Date Time Source
ENZV TAF 2019/02/23 13:06 UTC NOAA

TAF
AMD TAF
AMD ENZV 231358Z 2313/2412 16012KT 9999 BKN009 PROB40 2315/2320 SCT012
TEMPO 2315/2321 15018G28KT PROB30 2400/2406 0500 FG VV001


Example: see airport list